sensor_id;sensor_type;location;lat;lon;timestamp;temperature;humidity
10390;DHT22;5241;47.830;12.972;2022-10-15T00:02:18;13.80;99.90
10390;DHT22;5241;47.830;12.972;2022-10-15T00:04:43;13.80;99.90
10390;DHT22;5241;47.830;12.972;2022-10-15T00:07:09;13.80;99.90
10390;DHT22;5241;47.830;12.972;2022-10-15T00:09:34;13.80;99.90
10390;DHT22;5241;47.830;12.972;2022-10-15T00:12:00;13.70;99.90
10390;DHT22;5241;47.830;12.972;2022-10-15T00:14:25;13.70;99.90
10390;DHT22;5241;47.830;12.972;2022-10-15T00:16:51;13.80;99.90
10390;DHT22;5241;47.830;12.972;2022-10-15T00:19:17;13.80;99.90
10390;DHT22;5241;47.830;12.972;2022-10-15T00:21:42;13.70;99.90
10390;DHT22;5241;47.830;12.972;2022-10-15T00:24:08;13.70;99.90
10390;DHT22;5241;47.830;12.972;2022-10-15T00:26:33;13.70;99.90
10390;DHT22;5241;47.830;12.972;2022-10-15T00:29:01;13.70;99.90
10390;DHT22;5241;47.830;12.972;2022-10-15T00:31:29;13.60;99.90
10390;DHT22;5241;47.830;12.972;2022-10-15T00:33:57;13.60;99.90
10390;DHT22;5241;47.830;12.972;2022-10-15T00:36:26;13.50;99.90
10390;DHT22;5241;47.830;12.972;2022-10-15T00:38:52;13.50;99.90
10390;DHT22;5241;47.830;12.972;2022-10-15T00:41:21;13.50;99.90
10390;DHT22;5241;47.830;12.972;2022-10-15T00:43:49;13.40;99.90
10390;DHT22;5241;47.830;12.972;2022-10-15T00:49:17;13.40;99.90
10390;DHT22;5241;47.830;12.972;2022-10-15T00:51:47;13.40;99.90
10390;DHT22;5241;47.830;12.972;2022-10-15T00:54:13;13.40;99.90
10390;DHT22;5241;47.830;12.972;2022-10-15T00:56:42;13.40;99.90
10390;DHT22;5241;47.830;12.972;2022-10-15T00:59:10;13.40;99.90
10390;DHT22;5241;47.830;12.972;2022-10-15T01:01:36;13.40;99.90
10390;DHT22;5241;47.830;12.972;2022-10-15T01:04:03;13.30;99.90
10390;DHT22;5241;47.830;12.972;2022-10-15T01:06:30;13.30;99.90
10390;DHT22;5241;47.830;12.972;2022-10-15T01:08:56;13.30;99.90
10390;DHT22;5241;47.830;12.972;2022-10-15T01:11:46;13.30;99.90
10390;DHT22;5241;47.830;12.972;2022-10-15T01:14:56;13.30;99.90
10390;DHT22;5241;47.830;12.972;2022-10-15T01:28:36;13.00;99.90
10390;DHT22;5241;47.830;12.972;2022-10-15T01:31:28;12.90;99.90
10390;DHT22;5241;47.830;12.972;2022-10-15T01:36:41;12.70;99.90
10390;DHT22;5241;47.830;12.972;2022-10-15T01:39:29;12.70;99.90
10390;DHT22;5241;47.830;12.972;2022-10-15T01:42:16;12.60;99.90
10390;DHT22;5241;47.830;12.972;2022-10-15T01:44:51;12.60;99.90
10390;DHT22;5241;47.830;12.972;2022-10-15T01:47:23;12.60;99.90
10390;DHT22;5241;47.830;12.972;2022-10-15T01:49:51;12.70;99.90
10390;DHT22;5241;47.830;12.972;2022-10-15T01:52:26;12.80;99.90
10390;DHT22;5241;47.830;12.972;2022-10-15T01:54:52;12.70;99.90
10390;DHT22;5241;47.830;12.972;2022-10-15T01:57:19;12.80;99.90
10390;DHT22;5241;47.830;12.972;2022-10-15T01:59:46;12.70;99.90
10390;DHT22;5241;47.830;12.972;2022-10-15T02:02:12;12.70;99.90
10390;DHT22;5241;47.830;12.972;2022-10-15T02:04:38;12.70;99.90
10390;DHT22;5241;47.830;12.972;2022-10-15T02:10:23;12.60;99.90
10390;DHT22;5241;47.830;12.972;2022-10-15T02:18:25;12.60;99.90
10390;DHT22;5241;47.830;12.972;2022-10-15T02:21:04;12.60;99.90
10390;DHT22;5241;47.830;12.972;2022-10-15T02:26:24;12.70;99.90
10390;DHT22;5241;47.830;12.972;2022-10-15T02:28:54;12.60;99.90
10390;DHT22;5241;47.830;12.972;2022-10-15T02:31:22;12.60;99.90
10390;DHT22;5241;47.830;12.972;2022-10-15T02:33:49;12.60;99.90
10390;DHT22;5241;47.830;12.972;2022-10-15T02:36:17;12.70;99.90
10390;DHT22;5241;47.830;12.972;2022-10-15T02:38:44;12.60;99.90
10390;DHT22;5241;47.830;12.972;2022-10-15T02:41:11;12.60;99.90
10390;DHT22;5241;47.830;12.972;2022-10-15T02:43:38;12.60;99.90
10390;DHT22;5241;47.830;12.972;2022-10-15T02:46:05;12.60;99.90
10390;DHT22;5241;47.830;12.972;2022-10-15T02:48:32;12.60;99.90
10390;DHT22;5241;47.830;12.972;2022-10-15T02:50:57;12.60;99.90
10390;DHT22;5241;47.830;12.972;2022-10-15T02:53:23;12.60;99.90
10390;DHT22;5241;47.830;12.972;2022-10-15T02:55:49;12.60;99.90
10390;DHT22;5241;47.830;12.972;2022-10-15T02:58:14;12.60;99.90
10390;DHT22;5241;47.830;12.972;2022-10-15T03:00:40;12.60;99.90
10390;DHT22;5241;47.830;12.972;2022-10-15T03:03:05;12.60;99.90
10390;DHT22;5241;47.830;12.972;2022-10-15T03:05:31;12.60;99.90
10390;DHT22;5241;47.830;12.972;2022-10-15T03:07:59;12.60;99.90
10390;DHT22;5241;47.830;12.972;2022-10-15T03:10:24;12.60;99.90
10390;DHT22;5241;47.830;12.972;2022-10-15T03:12:50;12.60;99.90
10390;DHT22;5241;47.830;12.972;2022-10-15T03:15:16;12.50;99.90
10390;DHT22;5241;47.830;12.972;2022-10-15T03:17:41;12.60;99.90
10390;DHT22;5241;47.830;12.972;2022-10-15T03:20:07;12.60;99.90
10390;DHT22;5241;47.830;12.972;2022-10-15T03:22:33;12.60;99.90
10390;DHT22;5241;47.830;12.972;2022-10-15T03:24:58;12.60;99.90
10390;DHT22;5241;47.830;12.972;2022-10-15T03:27:24;12.60;99.90
10390;DHT22;5241;47.830;12.972;2022-10-15T03:29:49;12.60;99.90
10390;DHT22;5241;47.830;12.972;2022-10-15T03:32:15;12.60;99.90
10390;DHT22;5241;47.830;12.972;2022-10-15T03:34:40;12.60;99.90
10390;DHT22;5241;47.830;12.972;2022-10-15T03:37:06;12.60;99.90
10390;DHT22;5241;47.830;12.972;2022-10-15T03:39:32;12.50;99.90
10390;DHT22;5241;47.830;12.972;2022-10-15T03:41:57;12.60;99.90
10390;DHT22;5241;47.830;12.972;2022-10-15T03:44:23;12.60;99.90
10390;DHT22;5241;47.830;12.972;2022-10-15T03:46:48;12.50;99.90
10390;DHT22;5241;47.830;12.972;2022-10-15T03:49:14;12.50;99.90
10390;DHT22;5241;47.830;12.972;2022-10-15T03:51:39;12.50;99.90
10390;DHT22;5241;47.830;12.972;2022-10-15T03:54:05;12.50;99.90
10390;DHT22;5241;47.830;12.972;2022-10-15T03:56:30;12.50;99.90
10390;DHT22;5241;47.830;12.972;2022-10-15T03:58:56;12.50;99.90
10390;DHT22;5241;47.830;12.972;2022-10-15T04:01:21;12.50;99.90
10390;DHT22;5241;47.830;12.972;2022-10-15T04:03:51;12.50;99.90
10390;DHT22;5241;47.830;12.972;2022-10-15T04:06:17;12.50;99.90
10390;DHT22;5241;47.830;12.972;2022-10-15T04:08:43;12.60;99.90
10390;DHT22;5241;47.830;12.972;2022-10-15T04:11:08;12.50;99.90
10390;DHT22;5241;47.830;12.972;2022-10-15T04:13:34;12.50;99.90
10390;DHT22;5241;47.830;12.972;2022-10-15T04:15:59;12.50;99.90
10390;DHT22;5241;47.830;12.972;2022-10-15T04:18:28;12.50;99.90
10390;DHT22;5241;47.830;12.972;2022-10-15T04:20:53;12.50;99.90
10390;DHT22;5241;47.830;12.972;2022-10-15T04:23:22;12.50;99.90
10390;DHT22;5241;47.830;12.972;2022-10-15T04:25:48;12.50;99.90
10390;DHT22;5241;47.830;12.972;2022-10-15T04:28:13;12.50;99.90
10390;DHT22;5241;47.830;12.972;2022-10-15T04:30:39;12.60;99.90
10390;DHT22;5241;47.830;12.972;2022-10-15T04:33:04;12.60;99.90
10390;DHT22;5241;47.830;12.972;2022-10-15T04:35:30;12.60;99.90
10390;DHT22;5241;47.830;12.972;2022-10-15T04:37:57;12.60;99.90
10390;DHT22;5241;47.830;12.972;2022-10-15T04:40:23;12.50;99.90
10390;DHT22;5241;47.830;12.972;2022-10-15T04:42:49;12.50;99.90
10390;DHT22;5241;47.830;12.972;2022-10-15T04:45:15;12.60;99.90
10390;DHT22;5241;47.830;12.972;2022-10-15T04:47:40;12.60;99.90
10390;DHT22;5241;47.830;12.972;2022-10-15T04:50:06;12.60;99.90
10390;DHT22;5241;47.830;12.972;2022-10-15T04:52:33;12.60;99.90
10390;DHT22;5241;47.830;12.972;2022-10-15T04:54:59;12.60;99.90
10390;DHT22;5241;47.830;12.972;2022-10-15T04:57:27;12.60;99.90
10390;DHT22;5241;47.830;12.972;2022-10-15T04:59:52;12.60;99.90
10390;DHT22;5241;47.830;12.972;2022-10-15T05:02:18;12.60;99.90
10390;DHT22;5241;47.830;12.972;2022-10-15T05:04:44;12.60;99.90
10390;DHT22;5241;47.830;12.972;2022-10-15T05:07:09;12.60;99.90
10390;DHT22;5241;47.830;12.972;2022-10-15T05:09:35;12.60;99.90
10390;DHT22;5241;47.830;12.972;2022-10-15T05:12:00;12.60;99.90
10390;DHT22;5241;47.830;12.972;2022-10-15T05:14:26;12.60;99.90
10390;DHT22;5241;47.830;12.972;2022-10-15T05:16:52;12.60;99.90
10390;DHT22;5241;47.830;12.972;2022-10-15T05:19:18;12.70;99.90
10390;DHT22;5241;47.830;12.972;2022-10-15T05:21:43;12.80;99.90
10390;DHT22;5241;47.830;12.972;2022-10-15T05:24:09;12.70;99.90
10390;DHT22;5241;47.830;12.972;2022-10-15T05:26:35;12.70;99.90
10390;DHT22;5241;47.830;12.972;2022-10-15T05:29:01;12.70;99.90
10390;DHT22;5241;47.830;12.972;2022-10-15T05:31:30;12.70;99.90
10390;DHT22;5241;47.830;12.972;2022-10-15T05:33:57;12.60;99.90
10390;DHT22;5241;47.830;12.972;2022-10-15T05:36:27;12.70;99.90
10390;DHT22;5241;47.830;12.972;2022-10-15T05:38:58;12.70;99.90
10390;DHT22;5241;47.830;12.972;2022-10-15T05:41:25;12.70;99.90
10390;DHT22;5241;47.830;12.972;2022-10-15T05:43:52;12.70;99.90
10390;DHT22;5241;47.830;12.972;2022-10-15T05:46:19;12.60;99.90
10390;DHT22;5241;47.830;12.972;2022-10-15T05:48:49;12.70;99.90
10390;DHT22;5241;47.830;12.972;2022-10-15T05:51:16;12.70;99.90
10390;DHT22;5241;47.830;12.972;2022-10-15T05:53:41;12.70;99.90
10390;DHT22;5241;47.830;12.972;2022-10-15T05:56:08;12.70;99.90
10390;DHT22;5241;47.830;12.972;2022-10-15T05:58:35;12.60;99.90
10390;DHT22;5241;47.830;12.972;2022-10-15T06:01:03;12.70;99.90
10390;DHT22;5241;47.830;12.972;2022-10-15T06:03:29;12.70;99.90
10390;DHT22;5241;47.830;12.972;2022-10-15T06:05:55;12.70;99.90
10390;DHT22;5241;47.830;12.972;2022-10-15T06:08:21;12.70;99.90
10390;DHT22;5241;47.830;12.972;2022-10-15T06:10:47;12.70;99.90
10390;DHT22;5241;47.830;12.972;2022-10-15T06:13:13;12.70;99.90
10390;DHT22;5241;47.830;12.972;2022-10-15T06:15:44;12.70;99.90
10390;DHT22;5241;47.830;12.972;2022-10-15T06:18:11;12.70;99.90
10390;DHT22;5241;47.830;12.972;2022-10-15T06:20:43;12.70;99.90
10390;DHT22;5241;47.830;12.972;2022-10-15T06:23:10;12.70;99.90
10390;DHT22;5241;47.830;12.972;2022-10-15T06:25:36;12.70;99.90
10390;DHT22;5241;47.830;12.972;2022-10-15T06:28:03;12.70;99.90
10390;DHT22;5241;47.830;12.972;2022-10-15T06:30:29;12.80;99.90
10390;DHT22;5241;47.830;12.972;2022-10-15T06:32:55;12.80;99.90
10390;DHT22;5241;47.830;12.972;2022-10-15T06:35:22;12.80;99.90
10390;DHT22;5241;47.830;12.972;2022-10-15T06:37:48;12.80;99.90
10390;DHT22;5241;47.830;12.972;2022-10-15T06:40:14;12.80;99.90
10390;DHT22;5241;47.830;12.972;2022-10-15T06:42:40;12.80;99.90
10390;DHT22;5241;47.830;12.972;2022-10-15T06:45:07;12.80;99.90
10390;DHT22;5241;47.830;12.972;2022-10-15T06:47:35;12.80;99.90
10390;DHT22;5241;47.830;12.972;2022-10-15T06:50:01;12.80;99.90
10390;DHT22;5241;47.830;12.972;2022-10-15T06:52:28;12.90;99.90
10390;DHT22;5241;47.830;12.972;2022-10-15T06:54:54;12.90;99.90
10390;DHT22;5241;47.830;12.972;2022-10-15T06:57:19;12.90;99.90
10390;DHT22;5241;47.830;12.972;2022-10-15T06:59:45;13.00;99.90
10390;DHT22;5241;47.830;12.972;2022-10-15T07:02:11;13.00;99.90
10390;DHT22;5241;47.830;12.972;2022-10-15T07:04:38;12.90;99.90
10390;DHT22;5241;47.830;12.972;2022-10-15T07:07:04;13.00;99.90
10390;DHT22;5241;47.830;12.972;2022-10-15T07:09:30;13.00;99.90
10390;DHT22;5241;47.830;12.972;2022-10-15T07:11:55;13.00;99.90
10390;DHT22;5241;47.830;12.972;2022-10-15T07:14:21;13.00;99.90
10390;DHT22;5241;47.830;12.972;2022-10-15T07:16:47;13.10;99.90
10390;DHT22;5241;47.830;12.972;2022-10-15T07:19:12;13.20;99.90
10390;DHT22;5241;47.830;12.972;2022-10-15T07:21:38;13.20;99.90
10390;DHT22;5241;47.830;12.972;2022-10-15T07:24:04;13.20;99.90
10390;DHT22;5241;47.830;12.972;2022-10-15T07:26:29;13.20;99.90
10390;DHT22;5241;47.830;12.972;2022-10-15T07:28:56;13.20;99.90
10390;DHT22;5241;47.830;12.972;2022-10-15T07:31:21;13.20;99.90
10390;DHT22;5241;47.830;12.972;2022-10-15T07:33:47;13.20;99.90
10390;DHT22;5241;47.830;12.972;2022-10-15T07:36:13;13.30;99.90
10390;DHT22;5241;47.830;12.972;2022-10-15T07:38:39;13.30;99.90
10390;DHT22;5241;47.830;12.972;2022-10-15T07:41:06;13.30;99.90
10390;DHT22;5241;47.830;12.972;2022-10-15T07:43:33;13.30;99.90
10390;DHT22;5241;47.830;12.972;2022-10-15T07:46:00;13.40;99.90
10390;DHT22;5241;47.830;12.972;2022-10-15T07:48:25;13.40;99.90
10390;DHT22;5241;47.830;12.972;2022-10-15T07:50:59;13.40;99.90
10390;DHT22;5241;47.830;12.972;2022-10-15T07:53:26;13.40;99.90
10390;DHT22;5241;47.830;12.972;2022-10-15T07:55:52;13.50;99.90
10390;DHT22;5241;47.830;12.972;2022-10-15T07:58:17;13.50;99.90
10390;DHT22;5241;47.830;12.972;2022-10-15T08:00:43;13.50;99.90
10390;DHT22;5241;47.830;12.972;2022-10-15T08:03:08;13.50;99.90
10390;DHT22;5241;47.830;12.972;2022-10-15T08:05:34;13.50;99.90
10390;DHT22;5241;47.830;12.972;2022-10-15T08:08:00;13.40;99.90
10390;DHT22;5241;47.830;12.972;2022-10-15T08:10:26;13.50;99.90
10390;DHT22;5241;47.830;12.972;2022-10-15T08:12:52;13.50;99.90
10390;DHT22;5241;47.830;12.972;2022-10-15T08:15:18;13.50;99.90
10390;DHT22;5241;47.830;12.972;2022-10-15T08:17:43;13.50;99.90
10390;DHT22;5241;47.830;12.972;2022-10-15T08:20:09;13.60;99.90
10390;DHT22;5241;47.830;12.972;2022-10-15T08:22:35;13.50;99.90
10390;DHT22;5241;47.830;12.972;2022-10-15T08:25:00;13.50;99.90
10390;DHT22;5241;47.830;12.972;2022-10-15T08:27:26;13.50;99.90
10390;DHT22;5241;47.830;12.972;2022-10-15T08:29:52;13.50;99.90
10390;DHT22;5241;47.830;12.972;2022-10-15T08:32:17;13.50;99.90
10390;DHT22;5241;47.830;12.972;2022-10-15T08:34:45;13.50;99.90
10390;DHT22;5241;47.830;12.972;2022-10-15T08:37:10;13.50;99.90
10390;DHT22;5241;47.830;12.972;2022-10-15T08:39:36;13.50;99.90
10390;DHT22;5241;47.830;12.972;2022-10-15T08:42:04;13.60;99.90
10390;DHT22;5241;47.830;12.972;2022-10-15T08:44:49;13.70;99.90
10390;DHT22;5241;47.830;12.972;2022-10-15T08:47:38;13.80;99.90
10390;DHT22;5241;47.830;12.972;2022-10-15T08:50:33;13.90;99.90
10390;DHT22;5241;47.830;12.972;2022-10-15T08:53:00;13.90;99.90
10390;DHT22;5241;47.830;12.972;2022-10-15T08:55:32;14.00;99.90
10390;DHT22;5241;47.830;12.972;2022-10-15T08:58:09;13.90;99.90
10390;DHT22;5241;47.830;12.972;2022-10-15T09:00:53;13.90;99.90
10390;DHT22;5241;47.830;12.972;2022-10-15T09:03:38;13.90;99.90
10390;DHT22;5241;47.830;12.972;2022-10-15T09:06:34;13.90;99.90
10390;DHT22;5241;47.830;12.972;2022-10-15T09:09:16;13.90;99.90
10390;DHT22;5241;47.830;12.972;2022-10-15T09:11:58;14.00;99.90
10390;DHT22;5241;47.830;12.972;2022-10-15T09:14:30;13.90;99.90
10390;DHT22;5241;47.830;12.972;2022-10-15T09:17:00;14.00;99.90
10390;DHT22;5241;47.830;12.972;2022-10-15T09:19:28;14.00;99.90
10390;DHT22;5241;47.830;12.972;2022-10-15T09:21:54;14.20;99.90
10390;DHT22;5241;47.830;12.972;2022-10-15T09:24:23;14.30;99.90
10390;DHT22;5241;47.830;12.972;2022-10-15T09:27:09;14.30;99.90
10390;DHT22;5241;47.830;12.972;2022-10-15T09:33:02;14.30;99.90
10390;DHT22;5241;47.830;12.972;2022-10-15T09:35:39;14.40;99.90
10390;DHT22;5241;47.830;12.972;2022-10-15T09:38:30;14.40;99.90
10390;DHT22;5241;47.830;12.972;2022-10-15T09:41:18;14.40;99.90
10390;DHT22;5241;47.830;12.972;2022-10-15T09:43:48;14.40;99.90
10390;DHT22;5241;47.830;12.972;2022-10-15T09:46:14;14.50;99.90
10390;DHT22;5241;47.830;12.972;2022-10-15T09:51:39;14.60;99.90
10390;DHT22;5241;47.830;12.972;2022-10-15T09:54:09;14.70;99.90
10390;DHT22;5241;47.830;12.972;2022-10-15T09:56:56;14.90;99.90
10390;DHT22;5241;47.830;12.972;2022-10-15T09:59:23;15.00;99.90
10390;DHT22;5241;47.830;12.972;2022-10-15T10:04:41;15.20;99.90
10390;DHT22;5241;47.830;12.972;2022-10-15T10:07:07;15.30;99.90
10390;DHT22;5241;47.830;12.972;2022-10-15T10:09:52;15.40;99.90
10390;DHT22;5241;47.830;12.972;2022-10-15T10:12:27;15.50;99.90
10390;DHT22;5241;47.830;12.972;2022-10-15T10:15:03;15.40;99.90
10390;DHT22;5241;47.830;12.972;2022-10-15T10:17:29;15.70;99.90
10390;DHT22;5241;47.830;12.972;2022-10-15T10:22:43;16.10;99.90
10390;DHT22;5241;47.830;12.972;2022-10-15T10:30:35;16.40;99.90
10390;DHT22;5241;47.830;12.972;2022-10-15T10:33:02;16.40;99.90
10390;DHT22;5241;47.830;12.972;2022-10-15T10:35:34;16.20;99.90
10390;DHT22;5241;47.830;12.972;2022-10-15T10:38:01;16.00;99.90
10390;DHT22;5241;47.830;12.972;2022-10-15T10:40:32;15.90;99.90
10390;DHT22;5241;47.830;12.972;2022-10-15T10:45:56;15.80;99.90
10390;DHT22;5241;47.830;12.972;2022-10-15T10:48:38;15.70;99.90
10390;DHT22;5241;47.830;12.972;2022-10-15T10:53:33;15.50;99.90
10390;DHT22;5241;47.830;12.972;2022-10-15T10:56:03;15.60;99.90
10390;DHT22;5241;47.830;12.972;2022-10-15T10:58:32;15.60;99.90
10390;DHT22;5241;47.830;12.972;2022-10-15T11:00:58;15.70;99.90
10390;DHT22;5241;47.830;12.972;2022-10-15T11:03:39;15.90;99.90
10390;DHT22;5241;47.830;12.972;2022-10-15T11:15:19;16.20;99.90
10390;DHT22;5241;47.830;12.972;2022-10-15T11:20:55;16.30;99.90
10390;DHT22;5241;47.830;12.972;2022-10-15T11:37:35;16.60;99.90
10390;DHT22;5241;47.830;12.972;2022-10-15T11:40:17;16.60;99.90
10390;DHT22;5241;47.830;12.972;2022-10-15T11:42:56;16.70;99.90
10390;DHT22;5241;47.830;12.972;2022-10-15T11:51:07;17.30;99.90
10390;DHT22;5241;47.830;12.972;2022-10-15T11:56:39;17.40;99.90
10390;DHT22;5241;47.830;12.972;2022-10-15T12:01:56;17.60;99.90
10390;DHT22;5241;47.830;12.972;2022-10-15T12:07:14;17.70;99.90
10390;DHT22;5241;47.830;12.972;2022-10-15T12:09:45;18.00;99.90
10390;DHT22;5241;47.830;12.972;2022-10-15T12:17:34;18.10;99.90
10390;DHT22;5241;47.830;12.972;2022-10-15T12:20:11;17.90;99.90
10390;DHT22;5241;47.830;12.972;2022-10-15T12:22:40;17.90;99.90
10390;DHT22;5241;47.830;12.972;2022-10-15T12:30:34;18.00;99.90
10390;DHT22;5241;47.830;12.972;2022-10-15T12:33:03;18.00;99.90
10390;DHT22;5241;47.830;12.972;2022-10-15T12:35:38;18.00;99.90
10390;DHT22;5241;47.830;12.972;2022-10-15T12:38:21;17.90;99.90
10390;DHT22;5241;47.830;12.972;2022-10-15T12:40:56;17.90;99.90
10390;DHT22;5241;47.830;12.972;2022-10-15T12:43:23;18.00;99.90
10390;DHT22;5241;47.830;12.972;2022-10-15T12:45:58;18.10;99.90
10390;DHT22;5241;47.830;12.972;2022-10-15T12:48:33;18.50;99.90
10390;DHT22;5241;47.830;12.972;2022-10-15T12:53:50;18.60;99.90
10390;DHT22;5241;47.830;12.972;2022-10-15T13:03:43;19.10;99.90
10390;DHT22;5241;47.830;12.972;2022-10-15T13:11:50;19.10;99.90
10390;DHT22;5241;47.830;12.972;2022-10-15T13:14:32;19.10;99.90
10390;DHT22;5241;47.830;12.972;2022-10-15T13:17:12;19.10;99.90
10390;DHT22;5241;47.830;12.972;2022-10-15T13:19:45;19.00;99.90
10390;DHT22;5241;47.830;12.972;2022-10-15T13:22:28;19.00;99.90
10390;DHT22;5241;47.830;12.972;2022-10-15T13:24:55;18.90;99.90
10390;DHT22;5241;47.830;12.972;2022-10-15T13:27:34;18.80;99.90
10390;DHT22;5241;47.830;12.972;2022-10-15T13:32:30;19.00;99.90
10390;DHT22;5241;47.830;12.972;2022-10-15T13:34:57;18.80;99.90
10390;DHT22;5241;47.830;12.972;2022-10-15T13:37:30;18.90;99.90
10390;DHT22;5241;47.830;12.972;2022-10-15T13:39:57;19.00;99.90
10390;DHT22;5241;47.830;12.972;2022-10-15T13:42:24;18.90;99.90
10390;DHT22;5241;47.830;12.972;2022-10-15T13:47:41;18.90;99.90
10390;DHT22;5241;47.830;12.972;2022-10-15T13:55:38;18.90;99.90
10390;DHT22;5241;47.830;12.972;2022-10-15T14:00:55;18.80;99.90
10390;DHT22;5241;47.830;12.972;2022-10-15T14:03:23;18.60;99.90
10390;DHT22;5241;47.830;12.972;2022-10-15T14:05:51;18.70;99.90
10390;DHT22;5241;47.830;12.972;2022-10-15T14:08:21;18.60;99.90
10390;DHT22;5241;47.830;12.972;2022-10-15T14:10:48;18.60;99.90
10390;DHT22;5241;47.830;12.972;2022-10-15T14:13:14;18.60;99.90
10390;DHT22;5241;47.830;12.972;2022-10-15T14:18:11;18.70;99.90
10390;DHT22;5241;47.830;12.972;2022-10-15T14:20:45;18.90;99.90
10390;DHT22;5241;47.830;12.972;2022-10-15T14:23:22;19.00;99.90
10390;DHT22;5241;47.830;12.972;2022-10-15T14:25:58;18.90;99.90
10390;DHT22;5241;47.830;12.972;2022-10-15T14:28:25;18.60;99.90
10390;DHT22;5241;47.830;12.972;2022-10-15T14:30:52;18.50;99.90
10390;DHT22;5241;47.830;12.972;2022-10-15T14:38:30;17.90;99.90
10390;DHT22;5241;47.830;12.972;2022-10-15T14:43:31;17.60;99.90
10390;DHT22;5241;47.830;12.972;2022-10-15T14:45:59;17.40;99.90
10390;DHT22;5241;47.830;12.972;2022-10-15T14:48:30;17.40;99.90
10390;DHT22;5241;47.830;12.972;2022-10-15T14:51:02;17.20;99.90
10390;DHT22;5241;47.830;12.972;2022-10-15T14:53:31;17.30;99.90
10390;DHT22;5241;47.830;12.972;2022-10-15T14:56:07;17.40;99.90
10390;DHT22;5241;47.830;12.972;2022-10-15T14:58:36;17.40;99.90
10390;DHT22;5241;47.830;12.972;2022-10-15T15:01:05;17.50;99.90
10390;DHT22;5241;47.830;12.972;2022-10-15T15:03:43;17.50;99.90
10390;DHT22;5241;47.830;12.972;2022-10-15T15:06:10;17.50;99.90
10390;DHT22;5241;47.830;12.972;2022-10-15T15:08:35;17.50;99.90
10390;DHT22;5241;47.830;12.972;2022-10-15T15:11:03;17.50;99.90
10390;DHT22;5241;47.830;12.972;2022-10-15T15:13:31;17.50;99.90
10390;DHT22;5241;47.830;12.972;2022-10-15T15:16:02;17.40;99.90
10390;DHT22;5241;47.830;12.972;2022-10-15T15:18:27;17.30;99.90
10390;DHT22;5241;47.830;12.972;2022-10-15T15:20:57;17.30;99.90
10390;DHT22;5241;47.830;12.972;2022-10-15T15:23:26;17.30;99.90
10390;DHT22;5241;47.830;12.972;2022-10-15T15:25:52;17.30;99.90
10390;DHT22;5241;47.830;12.972;2022-10-15T15:28:20;17.20;99.90
10390;DHT22;5241;47.830;12.972;2022-10-15T15:30:56;17.10;99.90
10390;DHT22;5241;47.830;12.972;2022-10-15T15:33:23;17.00;99.90
10390;DHT22;5241;47.830;12.972;2022-10-15T15:35:50;16.80;99.90
10390;DHT22;5241;47.830;12.972;2022-10-15T15:38:22;16.60;99.90
10390;DHT22;5241;47.830;12.972;2022-10-15T15:40:48;16.50;99.90
10390;DHT22;5241;47.830;12.972;2022-10-15T15:43:16;16.40;99.90
10390;DHT22;5241;47.830;12.972;2022-10-15T15:45:42;16.20;99.90
10390;DHT22;5241;47.830;12.972;2022-10-15T15:48:07;16.00;99.90
10390;DHT22;5241;47.830;12.972;2022-10-15T15:50:34;16.00;99.90
10390;DHT22;5241;47.830;12.972;2022-10-15T15:53:00;16.10;99.90
10390;DHT22;5241;47.830;12.972;2022-10-15T15:55:25;16.20;99.90
10390;DHT22;5241;47.830;12.972;2022-10-15T15:57:51;16.30;99.90
10390;DHT22;5241;47.830;12.972;2022-10-15T16:00:17;16.30;99.90
10390;DHT22;5241;47.830;12.972;2022-10-15T16:02:43;16.40;99.90
10390;DHT22;5241;47.830;12.972;2022-10-15T16:05:12;16.40;99.90
10390;DHT22;5241;47.830;12.972;2022-10-15T16:07:38;16.30;99.90
10390;DHT22;5241;47.830;12.972;2022-10-15T16:10:04;16.30;99.90
10390;DHT22;5241;47.830;12.972;2022-10-15T16:12:33;16.30;99.90
10390;DHT22;5241;47.830;12.972;2022-10-15T16:14:59;16.30;99.90
10390;DHT22;5241;47.830;12.972;2022-10-15T16:17:25;16.30;99.90
10390;DHT22;5241;47.830;12.972;2022-10-15T16:19:51;16.30;99.90
10390;DHT22;5241;47.830;12.972;2022-10-15T16:22:16;16.20;99.90
10390;DHT22;5241;47.830;12.972;2022-10-15T16:24:42;16.30;99.90
10390;DHT22;5241;47.830;12.972;2022-10-15T16:27:08;16.20;99.90
10390;DHT22;5241;47.830;12.972;2022-10-15T16:29:33;16.20;99.90
10390;DHT22;5241;47.830;12.972;2022-10-15T16:31:59;16.10;99.90
10390;DHT22;5241;47.830;12.972;2022-10-15T16:34:25;16.10;99.90
10390;DHT22;5241;47.830;12.972;2022-10-15T16:36:51;16.10;99.90
10390;DHT22;5241;47.830;12.972;2022-10-15T16:39:16;16.10;99.90
10390;DHT22;5241;47.830;12.972;2022-10-15T16:41:42;16.10;99.90
10390;DHT22;5241;47.830;12.972;2022-10-15T16:44:08;16.10;99.90
10390;DHT22;5241;47.830;12.972;2022-10-15T16:46:33;16.00;99.90
10390;DHT22;5241;47.830;12.972;2022-10-15T16:48:59;16.00;99.90
10390;DHT22;5241;47.830;12.972;2022-10-15T16:51:25;16.00;99.90
10390;DHT22;5241;47.830;12.972;2022-10-15T16:53:51;16.00;99.90
10390;DHT22;5241;47.830;12.972;2022-10-15T16:56:19;16.00;99.90
10390;DHT22;5241;47.830;12.972;2022-10-15T16:58:45;16.00;99.90
10390;DHT22;5241;47.830;12.972;2022-10-15T17:01:14;16.00;99.90
10390;DHT22;5241;47.830;12.972;2022-10-15T17:03:40;15.90;99.90
10390;DHT22;5241;47.830;12.972;2022-10-15T17:06:09;15.90;99.90
10390;DHT22;5241;47.830;12.972;2022-10-15T17:08:40;15.90;99.90
10390;DHT22;5241;47.830;12.972;2022-10-15T17:11:10;15.80;99.90
10390;DHT22;5241;47.830;12.972;2022-10-15T17:13:36;15.80;99.90
10390;DHT22;5241;47.830;12.972;2022-10-15T17:16:20;15.80;99.90
10390;DHT22;5241;47.830;12.972;2022-10-15T17:18:46;15.90;99.90
10390;DHT22;5241;47.830;12.972;2022-10-15T17:21:15;15.90;99.90
10390;DHT22;5241;47.830;12.972;2022-10-15T17:23:41;15.90;99.90
10390;DHT22;5241;47.830;12.972;2022-10-15T17:26:10;15.90;99.90
10390;DHT22;5241;47.830;12.972;2022-10-15T17:28:36;15.80;99.90
10390;DHT22;5241;47.830;12.972;2022-10-15T17:31:06;15.80;99.90
10390;DHT22;5241;47.830;12.972;2022-10-15T17:33:35;15.80;99.90
10390;DHT22;5241;47.830;12.972;2022-10-15T17:36:03;15.70;99.90
10390;DHT22;5241;47.830;12.972;2022-10-15T17:38:30;15.70;99.90
10390;DHT22;5241;47.830;12.972;2022-10-15T17:40:56;15.70;99.90
10390;DHT22;5241;47.830;12.972;2022-10-15T17:43:22;15.70;99.90
10390;DHT22;5241;47.830;12.972;2022-10-15T17:45:47;15.70;99.90
10390;DHT22;5241;47.830;12.972;2022-10-15T17:48:13;15.70;99.90
10390;DHT22;5241;47.830;12.972;2022-10-15T17:50:38;15.80;99.90
10390;DHT22;5241;47.830;12.972;2022-10-15T17:53:04;15.80;99.90
10390;DHT22;5241;47.830;12.972;2022-10-15T17:55:30;15.70;99.90
10390;DHT22;5241;47.830;12.972;2022-10-15T17:57:56;15.70;99.90
10390;DHT22;5241;47.830;12.972;2022-10-15T18:00:22;15.70;99.90
10390;DHT22;5241;47.830;12.972;2022-10-15T18:02:48;15.70;99.90